Time;durP1;ratioP1;P1;durP2;ratioP2;P2;SDS_P1;SDS_P2;PMS_P1;PMS_P2;Temp;Humidity;BMP_temperature;BMP_pressure;BME280_temperature;BME280_humidity;BME280_pressure;Samples;Min_cycle;Max_cycle;Signal;HPM_P1;HPM_P2
2023/07/18 00:00:13;;;;;;;7.25;4.78;;;28.30;96.70;;;;;;4929436;29;20433;-80
2023/07/18 00:02:42;;;;;;;8.80;4.53;;;28.30;96.70;;;;;;4919145;29;20048;-81
2023/07/18 00:05:12;;;;;;;10.45;4.32;;;28.30;96.70;;;;;;4917932;29;20040;-80
2023/07/18 00:07:40;;;;;;;6.95;4.20;;;28.20;96.70;;;;;;4920515;29;20474;-81
2023/07/18 00:10:09;;;;;;;8.68;4.05;;;28.20;96.70;;;;;;4900098;29;20447;-81
2023/07/18 00:12:40;;;;;;;5.85;4.15;;;28.10;96.70;;;;;;4912253;29;20535;-80
2023/07/18 00:15:09;;;;;;;10.30;4.05;;;28.10;96.70;;;;;;4908276;29;20052;-80
2023/07/18 00:17:39;;;;;;;7.32;4.10;;;28.10;96.70;;;;;;4912661;29;20502;-81
2023/07/18 00:20:18;;;;;;;10.48;4.68;;;28.10;96.70;;;;;;4923467;29;20071;-81
2023/07/18 00:22:49;;;;;;;5.75;3.90;;;28.00;96.70;;;;;;4917157;29;20142;-81
2023/07/18 00:25:19;;;;;;;8.57;3.90;;;28.10;96.70;;;;;;4914212;29;20446;-81
2023/07/18 00:27:50;;;;;;;9.45;4.45;;;28.00;96.70;;;;;;4899267;29;20082;-82
2023/07/18 00:30:20;;;;;;;7.18;4.03;;;28.00;96.70;;;;;;4912104;29;20056;-81
2023/07/18 00:32:50;;;;;;;7.07;3.80;;;28.00;96.70;;;;;;4919682;29;20062;-81
2023/07/18 00:35:18;;;;;;;6.60;4.13;;;27.90;96.70;;;;;;4894489;29;20134;-82
2023/07/18 00:37:49;;;;;;;10.15;4.50;;;27.90;96.70;;;;;;4911459;29;20043;-81
2023/07/18 00:40:17;;;;;;;10.00;4.53;;;27.90;96.70;;;;;;4912155;29;20062;-81
2023/07/18 00:42:48;;;;;;;6.80;4.20;;;27.90;96.70;;;;;;4919712;29;20042;-80
2023/07/18 00:45:16;;;;;;;7.47;3.85;;;27.90;96.70;;;;;;4895637;29;20196;-82
2023/07/18 00:47:46;;;;;;;11.77;4.13;;;27.90;96.70;;;;;;4920405;29;20413;-80
2023/07/18 00:50:16;;;;;;;9.52;4.40;;;27.80;96.70;;;;;;4926889;29;20506;-81
2023/07/18 00:52:48;;;;;;;7.03;4.43;;;27.80;96.70;;;;;;4899659;29;20098;-81
2023/07/18 00:55:16;;;;;;;5.88;4.32;;;27.80;96.70;;;;;;4923878;29;20380;-80
2023/07/18 00:57:45;;;;;;;5.88;4.10;;;27.70;96.70;;;;;;4928943;29;20525;-82
2023/07/18 01:00:17;;;;;;;8.07;3.92;;;27.70;96.70;;;;;;4896546;29;20482;-81
2023/07/18 01:02:46;;;;;;;10.93;4.70;;;27.60;96.70;;;;;;4918542;29;20059;-81
2023/07/18 01:05:19;;;;;;;7.43;4.78;;;27.60;96.70;;;;;;4914611;29;21125;-81
2023/07/18 01:07:48;;;;;;;7.85;4.13;;;27.70;96.70;;;;;;4912720;29;20552;-81
2023/07/18 01:10:18;;;;;;;6.80;4.18;;;27.70;96.70;;;;;;4917233;29;20072;-81
2023/07/18 01:12:46;;;;;;;9.23;3.97;;;27.60;96.70;;;;;;4926508;29;20059;-81
2023/07/18 01:15:15;;;;;;;8.32;4.57;;;27.60;96.70;;;;;;4920639;29;20051;-81
2023/07/18 01:17:45;;;;;;;7.45;4.43;;;27.60;96.70;;;;;;4928480;29;20417;-81
2023/07/18 01:20:16;;;;;;;5.95;4.40;;;27.50;96.70;;;;;;4928275;29;20051;-81
2023/07/18 01:22:48;;;;;;;6.82;4.40;;;27.50;96.70;;;;;;4906182;29;20055;-81
2023/07/18 01:25:17;;;;;;;8.95;4.40;;;27.50;96.70;;;;;;4916729;29;20427;-81
2023/07/18 01:27:45;;;;;;;7.97;4.20;;;27.50;96.70;;;;;;4927261;29;21230;-80
2023/07/18 01:30:15;;;;;;;6.10;3.97;;;27.50;96.70;;;;;;4917674;29;20099;-79
2023/07/18 01:32:42;;;;;;;6.13;4.50;;;27.50;96.70;;;;;;4911432;29;20044;-80
2023/07/18 01:35:11;;;;;;;7.65;4.38;;;27.50;96.70;;;;;;4916508;29;20044;-81
2023/07/18 01:37:40;;;;;;;6.93;4.10;;;27.50;96.70;;;;;;4899418;29;20047;-81
2023/07/18 01:40:12;;;;;;;8.85;4.53;;;27.40;96.70;;;;;;4919706;29;20047;-80
2023/07/18 01:42:40;;;;;;;6.15;3.90;;;27.40;96.70;;;;;;4898637;29;20066;-80
2023/07/18 01:45:10;;;;;;;6.13;4.43;;;27.50;96.70;;;;;;4927128;29;20078;-81
2023/07/18 01:47:39;;;;;;;8.88;4.60;;;27.50;96.70;;;;;;4927459;29;20051;-80
2023/07/18 01:50:08;;;;;;;8.15;3.95;;;27.40;96.70;;;;;;4905035;29;20490;-80
2023/07/18 01:52:37;;;;;;;7.10;4.75;;;27.30;96.70;;;;;;4902604;29;20052;-80
2023/07/18 01:55:06;;;;;;;7.88;4.43;;;27.20;96.70;;;;;;4910878;29;20106;-81
2023/07/18 01:57:44;;;;;;;5.57;4.07;;;27.20;96.70;;;;;;4911928;29;20043;-81
2023/07/18 02:00:19;;;;;;;7.32;4.80;;;27.30;96.70;;;;;;4917388;29;20522;-81
2023/07/18 02:02:49;;;;;;;7.45;4.88;;;27.30;96.70;;;;;;4916804;29;20047;-81
2023/07/18 02:05:19;;;;;;;7.90;4.68;;;27.20;96.70;;;;;;4932728;29;20039;-80
2023/07/18 02:07:47;;;;;;;6.65;4.55;;;27.00;96.70;;;;;;4918564;29;20056;-80
2023/07/18 02:10:19;;;;;;;6.30;4.30;;;26.90;96.70;;;;;;4919433;29;20043;-80
2023/07/18 02:12:50;;;;;;;5.32;4.47;;;26.80;96.70;;;;;;4910519;29;20047;-81
2023/07/18 02:15:20;;;;;;;6.10;4.53;;;26.90;96.70;;;;;;4910985;29;20059;-80
2023/07/18 02:17:49;;;;;;;7.63;4.80;;;26.90;96.70;;;;;;4928373;29;20047;-81
2023/07/18 02:20:18;;;;;;;7.18;4.50;;;26.90;96.70;;;;;;4915530;29;20043;-81
2023/07/18 02:22:47;;;;;;;6.47;4.20;;;26.80;96.70;;;;;;4921852;29;20139;-81
2023/07/18 02:25:17;;;;;;;5.65;4.47;;;26.80;96.70;;;;;;4924659;29;20086;-81
2023/07/18 02:27:46;;;;;;;7.80;4.45;;;26.90;96.70;;;;;;4913887;29;20526;-81
2023/07/18 02:30:16;;;;;;;6.07;4.63;;;26.80;96.70;;;;;;4931350;29;20048;-81
2023/07/18 02:32:45;;;;;;;6.82;4.32;;;26.80;96.70;;;;;;4933781;29;20051;-81
2023/07/18 02:35:17;;;;;;;8.63;4.55;;;26.80;96.70;;;;;;4916975;29;20051;-81
2023/07/18 02:37:46;;;;;;;7.30;4.57;;;26.90;96.70;;;;;;4914443;29;20051;-81
2023/07/18 02:40:17;;;;;;;7.07;4.70;;;26.80;96.70;;;;;;4914337;29;20096;-82
2023/07/18 02:42:46;;;;;;;5.22;4.57;;;26.90;96.70;;;;;;4899691;29;20048;-82
2023/07/18 02:45:15;;;;;;;8.40;4.47;;;26.90;96.70;;;;;;4904710;29;20086;-81
2023/07/18 02:47:43;;;;;;;9.48;4.65;;;27.00;96.70;;;;;;4918688;29;20539;-81
2023/07/18 02:50:11;;;;;;;10.23;4.70;;;27.00;96.70;;;;;;4922272;29;20098;-81
2023/07/18 02:52:40;;;;;;;8.25;5.03;;;26.90;96.70;;;;;;4905878;29;20540;-81
2023/07/18 02:55:08;;;;;;;7.03;4.68;;;26.90;96.70;;;;;;4928370;29;20051;-81
2023/07/18 02:57:37;;;;;;;5.63;4.28;;;26.80;96.70;;;;;;4930378;29;20054;-82
2023/07/18 03:00:19;;;;;;;8.10;5.05;;;26.80;96.70;;;;;;4921681;29;20055;-80
2023/07/18 03:02:55;;;;;;;5.40;4.47;;;26.90;96.70;;;;;;4913287;29;20489;-81
2023/07/18 03:05:23;;;;;;;10.35;5.25;;;27.00;96.70;;;;;;4927741;29;20047;-81
2023/07/18 03:07:52;;;;;;;7.57;5.15;;;26.90;96.70;;;;;;4912834;29;20075;-80
2023/07/18 03:10:20;;;;;;;6.40;4.20;;;26.90;96.70;;;;;;4920647;29;20568;-80
2023/07/18 03:12:49;;;;;;;7.63;4.93;;;26.90;96.70;;;;;;4914175;29;20814;-81
2023/07/18 03:15:21;;;;;;;7.07;5.20;;;26.90;96.70;;;;;;4911827;29;20071;-81
2023/07/18 03:17:49;;;;;;;7.50;5.43;;;26.80;96.70;;;;;;4920825;29;20417;-81
2023/07/18 03:20:19;;;;;;;9.02;4.57;;;26.80;96.70;;;;;;4930050;29;20044;-81
2023/07/18 03:22:50;;;;;;;8.43;4.60;;;26.80;96.70;;;;;;4921397;29;20067;-81
2023/07/18 03:25:21;;;;;;;7.22;4.47;;;26.80;96.70;;;;;;4920071;29;20051;-81
2023/07/18 03:27:50;;;;;;;9.95;5.43;;;26.80;96.70;;;;;;4921786;29;20052;-81
2023/07/18 03:30:18;;;;;;;7.30;5.03;;;26.80;96.70;;;;;;4924617;29;20414;-82
2023/07/18 03:32:46;;;;;;;8.23;5.82;;;26.70;96.70;;;;;;4914552;29;20048;-81
2023/07/18 03:35:14;;;;;;;7.55;5.07;;;26.70;96.70;;;;;;4929699;29;20040;-81
2023/07/18 03:37:44;;;;;;;9.30;5.68;;;26.70;96.70;;;;;;4914351;29;20211;-81
2023/07/18 03:40:15;;;;;;;12.50;5.53;;;26.60;96.70;;;;;;4928753;29;20099;-81
2023/07/18 03:42:45;;;;;;;5.97;4.80;;;26.70;96.70;;;;;;4912543;29;20458;-81
2023/07/18 03:45:13;;;;;;;12.25;6.05;;;26.70;96.70;;;;;;4929197;29;20050;-81
2023/07/18 03:47:42;;;;;;;10.88;7.00;;;26.80;96.70;;;;;;4911584;29;20051;-81
2023/07/18 03:50:12;;;;;;;13.55;7.43;;;26.80;96.70;;;;;;4929119;29;20044;-80
2023/07/18 03:52:40;;;;;;;14.43;7.25;;;26.80;96.70;;;;;;4929329;29;20043;-81
2023/07/18 03:55:09;;;;;;;15.77;7.85;;;26.70;96.70;;;;;;4921589;29;20947;-81
2023/07/18 03:57:37;;;;;;;12.93;7.30;;;26.70;96.70;;;;;;4915873;29;20126;-80
2023/07/18 04:00:13;;;;;;;17.38;9.15;;;26.70;96.70;;;;;;4896483;29;20594;-81
2023/07/18 04:02:42;;;;;;;;;;;26.70;96.70;;;;;;4927658;29;20504;-81
2023/07/18 04:05:14;;;;;;;21.35;10.25;;;26.60;96.70;;;;;;4903308;29;20642;-81
2023/07/18 04:07:43;;;;;;;18.83;9.30;;;26.60;96.70;;;;;;4928682;29;20043;-81
2023/07/18 04:10:13;;;;;;;19.40;11.20;;;26.60;96.70;;;;;;4911651;29;20055;-81
2023/07/18 04:12:42;;;;;;;21.20;11.18;;;26.60;96.70;;;;;;4899239;29;20458;-81
2023/07/18 04:15:11;;;;;;;15.90;9.55;;;26.50;96.70;;;;;;4918750;29;20043;-81
2023/07/18 04:17:40;;;;;;;20.73;10.52;;;26.60;96.70;;;;;;4929327;29;20126;-81
2023/07/18 04:20:08;;;;;;;16.88;9.85;;;26.60;96.70;;;;;;4912143;29;20720;-82
2023/07/18 04:22:36;;;;;;;23.25;10.40;;;26.50;96.70;;;;;;4929078;29;20048;-82
2023/07/18 04:25:06;;;;;;;19.08;10.30;;;26.60;96.70;;;;;;4931282;28;20069;-81
2023/07/18 04:27:35;;;;;;;18.98;11.07;;;26.50;96.70;;;;;;4927714;29;20118;-81
2023/07/18 04:30:04;;;;;;;18.65;11.57;;;26.50;96.70;;;;;;4918896;29;20051;-81
2023/07/18 04:32:32;;;;;;;23.25;11.38;;;26.40;96.70;;;;;;4927474;29;20572;-81
2023/07/18 04:35:00;;;;;;;22.13;13.88;;;26.40;96.70;;;;;;4920923;29;20581;-82
2023/07/18 04:37:28;;;;;;;25.45;13.38;;;26.50;96.70;;;;;;4916012;29;20154;-81
2023/07/18 04:39:56;;;;;;;26.02;14.25;;;26.60;96.70;;;;;;4937121;29;20272;-81
2023/07/18 04:42:24;;;;;;;29.77;14.30;;;26.70;96.70;;;;;;4930763;29;20130;-81
2023/07/18 04:44:54;;;;;;;28.20;13.73;;;26.50;96.70;;;;;;4920717;29;21676;-82
2023/07/18 04:47:22;;;;;;;26.10;14.20;;;26.40;96.70;;;;;;4918625;29;20164;-81
2023/07/18 04:49:50;;;;;;;28.25;14.18;;;26.40;96.70;;;;;;4913655;29;20082;-82
2023/07/18 04:52:19;;;;;;;24.95;13.27;;;26.40;96.70;;;;;;4905430;29;20458;-82
2023/07/18 04:54:47;;;;;;;16.30;10.70;;;26.50;96.70;;;;;;4914316;29;20058;-81
2023/07/18 04:57:17;;;;;;;11.57;9.35;;;26.60;96.70;;;;;;4911897;29;20065;-81
2023/07/18 04:59:46;;;;;;;19.13;11.20;;;26.60;96.70;;;;;;4921839;29;20058;-81
2023/07/18 05:02:15;;;;;;;17.83;11.55;;;26.60;96.70;;;;;;4918858;29;20066;-80
2023/07/18 05:04:43;;;;;;;17.92;11.77;;;26.60;96.70;;;;;;4913839;29;20047;-81
2023/07/18 05:07:13;;;;;;;23.70;12.38;;;26.60;96.70;;;;;;4937055;29;20046;-81
2023/07/18 05:09:41;;;;;;;17.70;11.45;;;26.60;96.70;;;;;;4920244;29;20051;-81
2023/07/18 05:12:09;;;;;;;16.65;10.25;;;26.60;96.70;;;;;;4920527;29;20111;-81
2023/07/18 05:14:37;;;;;;;12.10;8.20;;;26.50;96.70;;;;;;4911970;29;20056;-81
2023/07/18 05:17:06;;;;;;;12.95;7.57;;;26.60;96.70;;;;;;4916254;28;20126;-81
2023/07/18 05:19:35;;;;;;;12.30;7.72;;;26.70;96.70;;;;;;4917295;29;20510;-81
2023/07/18 05:22:04;;;;;;;14.45;7.82;;;26.70;96.70;;;;;;4933307;29;20054;-81
2023/07/18 05:24:32;;;;;;;10.30;7.50;;;26.60;96.70;;;;;;4903415;29;20058;-81
2023/07/18 05:27:01;;;;;;;12.70;7.93;;;26.70;96.70;;;;;;4919338;29;20063;-83
2023/07/18 05:29:29;;;;;;;11.68;8.30;;;26.80;96.70;;;;;;4911773;29;20043;-82
2023/07/18 05:31:57;;;;;;;11.77;7.78;;;26.80;96.70;;;;;;4917123;29;20118;-81
2023/07/18 05:34:25;;;;;;;11.05;7.72;;;26.70;96.70;;;;;;4928465;29;20044;-81
2023/07/18 05:37:00;;;;;;;17.83;9.05;;;26.70;96.70;;;;;;4900733;29;20078;-82
2023/07/18 05:39:29;;;;;;;16.00;8.45;;;26.80;96.70;;;;;;4918473;29;20048;-81
2023/07/18 05:41:57;;;;;;;16.02;8.85;;;26.80;96.70;;;;;;4924170;29;20055;-81
2023/07/18 05:44:25;;;;;;;13.07;8.13;;;26.90;96.70;;;;;;4927753;29;20079;-81
2023/07/18 05:46:53;;;;;;;14.50;8.13;;;26.90;96.70;;;;;;4911340;29;20107;-81
2023/07/18 05:49:21;;;;;;;16.15;8.13;;;26.90;96.70;;;;;;4928414;29;20048;-81
2023/07/18 05:51:50;;;;;;;13.10;8.50;;;27.00;96.70;;;;;;4911392;29;20051;-81
2023/07/18 05:54:20;;;;;;;16.90;9.10;;;26.90;96.70;;;;;;4925264;29;20087;-81
2023/07/18 05:56:48;;;;;;;19.10;9.60;;;27.00;96.70;;;;;;4916793;29;20075;-81
2023/07/18 05:59:16;;;;;;;23.17;11.25;;;27.10;96.70;;;;;;4922610;29;20544;-81
2023/07/18 06:01:45;;;;;;;19.95;12.98;;;27.00;96.70;;;;;;4913964;29;20051;-80
2023/07/18 06:04:15;;;;;;;24.55;14.43;;;27.00;96.70;;;;;;4914653;29;20096;-81
2023/07/18 06:06:44;;;;;;;23.95;12.98;;;27.00;96.70;;;;;;4914377;29;20051;-80
2023/07/18 06:09:13;;;;;;;26.60;13.75;;;27.00;96.70;;;;;;4928691;29;20476;-79
2023/07/18 06:11:43;;;;;;;21.80;12.07;;;27.10;96.70;;;;;;4923069;29;20044;-81
2023/07/18 06:14:11;;;;;;;30.77;13.95;;;27.10;96.70;;;;;;4931183;29;20044;-79
2023/07/18 06:16:39;;;;;;;31.75;14.18;;;27.10;96.70;;;;;;4913877;29;20055;-79
2023/07/18 06:19:07;;;;;;;27.25;13.00;;;27.10;96.70;;;;;;4930341;29;20056;-78
2023/07/18 06:21:36;;;;;;;28.83;13.52;;;27.10;96.70;;;;;;4928032;29;20048;-84
2023/07/18 06:24:04;;;;;;;19.98;10.25;;;27.20;96.70;;;;;;4919603;29;20498;-84
2023/07/18 06:26:50;;;;;;;19.88;10.77;;;27.30;96.70;;;;;;4918525;29;20087;-85
2023/07/18 06:29:19;;;;;;;17.10;10.50;;;27.30;96.70;;;;;;4913423;29;20671;-84
2023/07/18 06:31:48;;;;;;;17.48;9.98;;;27.50;96.70;;;;;;4930559;28;20122;-84
2023/07/18 06:34:17;;;;;;;15.30;10.10;;;27.50;96.70;;;;;;4937047;29;20067;-84
2023/07/18 06:36:46;;;;;;;15.15;9.25;;;27.60;96.70;;;;;;4932735;29;20048;-83
2023/07/18 06:39:16;;;;;;;14.35;10.05;;;27.60;96.70;;;;;;4915931;29;20063;-84
2023/07/18 06:41:46;;;;;;;13.30;8.93;;;27.60;96.70;;;;;;4930410;29;20054;-84
2023/07/18 06:44:15;;;;;;;12.63;8.50;;;27.60;96.70;;;;;;4916330;29;20048;-84
2023/07/18 06:46:43;;;;;;;10.90;8.70;;;27.60;96.70;;;;;;4915364;29;20059;-82
2023/07/18 06:49:13;;;;;;;12.50;7.57;;;27.60;96.70;;;;;;4911397;29;20048;-81
2023/07/18 06:51:42;;;;;;;12.13;7.47;;;27.50;96.70;;;;;;4932141;29;20040;-80
2023/07/18 06:54:10;;;;;;;9.73;7.85;;;27.60;96.70;;;;;;4924589;29;20138;-82
2023/07/18 06:56:40;;;;;;;9.63;7.55;;;27.60;96.70;;;;;;4912900;29;20556;-82
2023/07/18 06:59:10;;;;;;;9.38;8.18;;;27.70;96.70;;;;;;4917469;29;20040;-81
2023/07/18 07:01:38;;;;;;;10.95;8.18;;;27.70;96.70;;;;;;4917004;29;20070;-81
2023/07/18 07:04:06;;;;;;;9.80;7.45;;;27.70;96.70;;;;;;4903346;29;20130;-81
2023/07/18 07:06:41;;;;;;;9.00;6.82;;;27.80;96.70;;;;;;4928405;29;20048;-81
2023/07/18 07:09:12;;;;;;;9.75;7.30;;;27.80;96.70;;;;;;4929983;29;20128;-81
2023/07/18 07:11:41;;;;;;;12.77;7.70;;;28.00;96.70;;;;;;4924285;29;20099;-81
2023/07/18 07:14:11;;;;;;;11.60;8.45;;;27.90;96.70;;;;;;4903904;29;20051;-81
2023/07/18 07:16:40;;;;;;;11.90;7.50;;;27.80;96.70;;;;;;4926547;29;20079;-81
2023/07/18 07:19:09;;;;;;;9.43;7.47;;;27.80;96.70;;;;;;4927789;29;20553;-82
2023/07/18 07:21:37;;;;;;;10.43;7.40;;;27.90;96.70;;;;;;4906211;29;20138;-81
2023/07/18 07:24:05;;;;;;;10.80;7.82;;;28.10;96.70;;;;;;4916711;28;20043;-81
2023/07/18 07:26:33;;;;;;;12.32;7.43;;;28.10;96.70;;;;;;4932744;29;20044;-80
2023/07/18 07:29:03;;;;;;;12.70;8.48;;;28.10;96.70;;;;;;4930353;29;20102;-80
2023/07/18 07:31:32;;;;;;;10.77;7.53;;;28.10;96.70;;;;;;4922906;29;20048;-81
2023/07/18 07:34:00;;;;;;;10.68;8.20;;;28.20;96.70;;;;;;4938443;29;20043;-81
2023/07/18 07:36:29;;;;;;;12.80;8.93;;;28.20;96.70;;;;;;4930391;29;20051;-82
2023/07/18 07:38:57;;;;;;;12.27;9.02;;;28.30;96.70;;;;;;4913208;29;20050;-82
2023/07/18 07:41:26;;;;;;;17.65;9.60;;;28.30;96.70;;;;;;4913648;29;20122;-82
2023/07/18 07:43:54;;;;;;;14.27;8.70;;;28.40;96.70;;;;;;4921112;29;20043;-81
2023/07/18 07:46:22;;;;;;;12.65;8.45;;;28.40;96.70;;;;;;4927714;29;20152;-81
2023/07/18 07:48:52;;;;;;;12.57;8.02;;;28.40;96.70;;;;;;4924047;29;20040;-82
2023/07/18 07:51:22;;;;;;;14.88;8.68;;;28.60;96.70;;;;;;4933399;29;20103;-82
2023/07/18 07:53:50;;;;;;;13.18;9.02;;;28.70;96.70;;;;;;4912996;29;20550;-82
2023/07/18 07:56:18;;;;;;;12.88;8.60;;;28.80;96.70;;;;;;4920563;29;20055;-81
2023/07/18 07:58:46;;;;;;;15.50;9.68;;;28.80;96.70;;;;;;4904521;29;20043;-83
2023/07/18 08:01:32;;;;;;;15.13;8.85;;;28.90;96.70;;;;;;4933882;29;20048;-82
2023/07/18 08:04:02;;;;;;;13.38;8.90;;;29.00;96.70;;;;;;4935576;29;20039;-80
2023/07/18 08:06:30;;;;;;;15.00;9.50;;;29.10;96.70;;;;;;4919746;29;20130;-81
2023/07/18 08:08:59;;;;;;;12.77;8.93;;;29.20;96.70;;;;;;4930556;29;20039;-80
2023/07/18 08:11:27;;;;;;;15.32;8.65;;;29.30;96.70;;;;;;4918527;29;20044;-82
2023/07/18 08:13:56;;;;;;;13.27;7.82;;;29.40;96.70;;;;;;4933351;29;20040;-85
2023/07/18 08:16:24;;;;;;;12.30;8.05;;;29.40;96.70;;;;;;4924937;29;20545;-82
2023/07/18 08:18:52;;;;;;;21.70;8.70;;;29.40;96.70;;;;;;4920252;29;20684;-83
2023/07/18 08:21:22;;;;;;;14.05;8.00;;;29.50;96.70;;;;;;4921738;29;20130;-82
2023/07/18 08:23:50;;;;;;;13.43;8.55;;;29.60;96.70;;;;;;4913736;29;20051;-82
2023/07/18 08:26:19;;;;;;;12.05;8.30;;;29.70;96.70;;;;;;4934319;29;20062;-81
2023/07/18 08:28:48;;;;;;;12.13;7.78;;;29.70;96.70;;;;;;4927781;29;20114;-80
2023/07/18 08:31:16;;;;;;;12.90;8.40;;;29.70;96.70;;;;;;4923147;29;20055;-81
2023/07/18 08:33:45;;;;;;;16.10;10.27;;;29.70;96.70;;;;;;4911539;29;20065;-82
2023/07/18 08:36:14;;;;;;;12.77;8.20;;;29.70;96.70;;;;;;4912495;29;20070;-82
2023/07/18 08:38:49;;;;;;;13.98;8.75;;;29.70;96.70;;;;;;4903630;29;20058;-82
2023/07/18 08:41:19;;;;;;;13.90;7.93;;;29.70;96.70;;;;;;4907808;29;20052;-82
2023/07/18 08:43:49;;;;;;;13.00;7.60;;;29.70;96.70;;;;;;4916938;29;20050;-82
2023/07/18 08:46:17;;;;;;;13.82;7.85;;;29.80;96.70;;;;;;4919082;29;20533;-82
2023/07/18 08:48:46;;;;;;;13.23;6.80;;;29.90;96.70;;;;;;4934200;29;20119;-82
2023/07/18 08:51:14;;;;;;;13.07;7.38;;;29.90;96.70;;;;;;4903980;29;20043;-84
2023/07/18 08:53:45;;;;;;;10.85;7.10;;;29.90;96.70;;;;;;4922445;29;20067;-84
2023/07/18 08:56:13;;;;;;;11.18;7.00;;;29.90;96.70;;;;;;4929926;29;20131;-83
2023/07/18 08:58:41;;;;;;;9.32;6.47;;;30.00;96.70;;;;;;4903121;29;20229;-81
2023/07/18 09:01:09;;;;;;;13.13;6.82;;;30.10;96.70;;;;;;4911713;29;20040;-80
2023/07/18 09:03:38;;;;;;;8.68;6.85;;;30.20;96.70;;;;;;4914829;29;20044;-82
2023/07/18 09:06:19;;;;;;;15.60;6.80;;;30.20;96.70;;;;;;4912658;29;20577;-84
2023/07/18 09:08:50;;;;;;;12.65;6.43;;;30.20;96.70;;;;;;4928176;29;20102;-82
2023/07/18 09:11:21;;;;;;;9.13;7.20;;;30.20;96.70;;;;;;4911295;29;20043;-82
2023/07/18 09:13:50;;;;;;;13.75;7.53;;;30.30;96.70;;;;;;4924574;29;20039;-82
2023/07/18 09:16:20;;;;;;;10.50;7.38;;;30.30;96.70;;;;;;4898689;29;20060;-83
2023/07/18 09:18:49;;;;;;;14.70;7.53;;;30.30;96.70;;;;;;4926058;29;20044;-86
2023/07/18 09:21:18;;;;;;;9.13;7.15;;;30.40;96.70;;;;;;4928817;29;20046;-84
2023/07/18 09:23:50;;;;;;;12.98;8.30;;;30.40;96.70;;;;;;4895933;29;20111;-81
2023/07/18 09:26:20;;;;;;;20.48;11.20;;;30.50;96.70;;;;;;4910912;29;20071;-80
2023/07/18 09:28:48;;;;;;;14.27;8.40;;;30.70;96.70;;;;;;4917708;29;20044;-80
2023/07/18 09:31:18;;;;;;;13.85;8.13;;;30.70;96.70;;;;;;4914180;29;20054;-79
2023/07/18 09:33:48;;;;;;;9.82;6.30;;;30.70;96.70;;;;;;4914859;29;20079;-79
2023/07/18 09:36:18;;;;;;;9.43;6.45;;;30.80;96.70;;;;;;4911979;29;20078;-78
2023/07/18 09:38:49;;;;;;;12.13;6.63;;;30.80;96.70;;;;;;4913970;29;20055;-79
2023/07/18 09:41:18;;;;;;;13.02;7.28;;;30.90;96.70;;;;;;4915783;29;20146;-79
2023/07/18 09:43:49;;;;;;;13.63;6.93;;;30.90;96.70;;;;;;4930259;29;20178;-79
2023/07/18 09:46:17;;;;;;;12.70;6.75;;;31.00;96.70;;;;;;4919042;29;20402;-79
2023/07/18 09:48:46;;;;;;;9.93;6.38;;;30.90;96.70;;;;;;4930571;29;20050;-79
2023/07/18 09:51:22;;;;;;;14.57;6.47;;;31.10;96.70;;;;;;4930936;29;20047;-79
2023/07/18 09:53:53;;;;;;;11.10;6.47;;;31.20;96.70;;;;;;4898302;29;20118;-79
2023/07/18 09:56:23;;;;;;;10.05;5.20;;;31.30;96.70;;;;;;4921997;29;20055;-79
2023/07/18 09:58:52;;;;;;;8.68;5.75;;;31.40;96.70;;;;;;4917361;29;20050;-79
2023/07/18 10:01:20;;;;;;;10.88;6.32;;;31.40;96.70;;;;;;4930798;29;20476;-79
2023/07/18 10:03:52;;;;;;;11.90;6.28;;;31.40;96.70;;;;;;4913702;29;20463;-79
2023/07/18 10:06:21;;;;;;;9.23;6.43;;;31.50;96.70;;;;;;4916801;29;20062;-79
2023/07/18 10:08:53;;;;;;;10.18;6.68;;;31.50;96.70;;;;;;4930465;29;20130;-79
2023/07/18 10:11:21;;;;;;;12.00;6.28;;;31.60;96.70;;;;;;4930064;29;20054;-80
2023/07/18 10:14:11;;;;;;;11.32;6.10;;;31.70;96.70;;;;;;4919347;29;20691;-79
2023/07/18 10:16:42;;;;;;;8.60;6.25;;;31.80;96.70;;;;;;4928243;29;20406;-79
2023/07/18 10:19:18;;;;;;;9.55;6.05;;;32.00;96.70;;;;;;4918018;29;20232;-79
2023/07/18 10:21:47;;;;;;;10.90;6.55;;;32.20;96.70;;;;;;4913370;29;20122;-78
2023/07/18 10:24:31;;;;;;;12.05;6.20;;;32.10;96.70;;;;;;4913693;29;20047;-79
2023/07/18 10:27:06;;;;;;;12.15;6.38;;;32.10;96.70;;;;;;4912893;29;20126;-79
2023/07/18 10:29:38;;;;;;;9.38;5.15;;;32.20;96.70;;;;;;4925793;29;20079;-78
2023/07/18 10:32:10;;;;;;;8.18;5.75;;;32.30;96.70;;;;;;4911675;29;20091;-80
2023/07/18 10:34:51;;;;;;;12.55;6.15;;;32.40;96.70;;;;;;4912650;29;20119;-79
2023/07/18 10:37:25;;;;;;;11.60;5.47;;;32.50;96.70;;;;;;4929321;29;20568;-79
2023/07/18 10:39:55;;;;;;;10.52;5.70;;;32.50;96.70;;;;;;4920723;29;20052;-79
2023/07/18 10:42:26;;;;;;;11.55;5.60;;;32.50;96.70;;;;;;4929447;29;20494;-79
2023/07/18 10:44:55;;;;;;;8.57;4.90;;;32.70;96.70;;;;;;4928335;29;20105;-80
2023/07/18 10:47:24;;;;;;;8.70;5.57;;;32.90;96.70;;;;;;4925090;29;20418;-78
2023/07/18 10:49:54;;;;;;;11.25;5.40;;;33.00;96.70;;;;;;4928097;29;20146;-79
2023/07/18 10:52:22;;;;;;;11.90;5.90;;;33.00;96.70;;;;;;4927794;29;20051;-80
2023/07/18 10:54:55;;;;;;;7.20;5.03;;;33.00;96.70;;;;;;4912739;29;20048;-80
2023/07/18 10:57:25;;;;;;;11.05;5.13;;;33.10;96.70;;;;;;4912085;29;20131;-80
2023/07/18 10:59:53;;;;;;;11.60;5.97;;;33.10;96.70;;;;;;4918195;29;20118;-79
2023/07/18 11:02:22;;;;;;;10.45;5.95;;;33.20;96.70;;;;;;4911929;29;20506;-79
2023/07/18 11:04:53;;;;;;;8.02;5.25;;;33.20;96.70;;;;;;4912369;29;20060;-78
2023/07/18 11:07:32;;;;;;;8.25;4.97;;;33.30;96.70;;;;;;4920575;29;20517;-79
2023/07/18 11:10:03;;;;;;;10.65;5.63;;;33.40;96.70;;;;;;4912133;29;20079;-78
2023/07/18 11:12:31;;;;;;;8.95;4.90;;;33.50;96.70;;;;;;4918491;29;20043;-79
2023/07/18 11:14:59;;;;;;;6.13;5.07;;;33.60;96.70;;;;;;4925414;29;20048;-79
2023/07/18 11:17:28;;;;;;;11.85;4.85;;;33.70;96.70;;;;;;4913130;29;20056;-79
2023/07/18 11:19:57;;;;;;;8.75;5.47;;;33.90;96.70;;;;;;4928931;29;20055;-78
2023/07/18 11:22:28;;;;;;;6.07;5.13;;;34.00;96.70;;;;;;4927095;29;20058;-79
2023/07/18 11:24:59;;;;;;;11.18;5.38;;;34.10;96.70;;;;;;4927936;28;20497;-78
2023/07/18 11:27:34;;;;;;;11.02;5.85;;;34.10;96.70;;;;;;4911572;29;20055;-78
2023/07/18 11:30:04;;;;;;;11.18;5.53;;;34.10;96.70;;;;;;4928892;29;20050;-79
2023/07/18 11:32:37;;;;;;;8.65;5.68;;;34.10;96.70;;;;;;4929052;29;20051;-78
2023/07/18 11:35:07;;;;;;;9.45;5.55;;;34.20;96.70;;;;;;4912197;29;20406;-78
2023/07/18 11:37:38;;;;;;;9.68;5.88;;;34.20;96.70;;;;;;4904333;29;20158;-78
2023/07/18 11:40:10;;;;;;;10.02;5.65;;;34.20;96.70;;;;;;4919854;29;20517;-78
2023/07/18 11:42:45;;;;;;;9.77;5.43;;;34.20;96.70;;;;;;4928545;29;20131;-77
2023/07/18 11:45:15;;;;;;;9.93;5.70;;;34.30;96.70;;;;;;4926875;29;20047;-78
2023/07/18 11:47:50;;;;;;;9.23;5.38;;;34.50;96.70;;;;;;4921136;29;20536;-78
2023/07/18 11:50:19;;;;;;;10.95;5.22;;;34.50;96.70;;;;;;4926476;29;20495;-78
2023/07/18 11:52:48;;;;;;;9.10;5.57;;;34.70;96.70;;;;;;4924554;29;20580;-78
2023/07/18 11:55:18;;;;;;;11.70;5.68;;;34.90;96.70;;;;;;4928294;29;20054;-78
2023/07/18 11:57:48;;;;;;;7.25;5.35;;;34.90;96.70;;;;;;4909922;29;20487;-78
2023/07/18 12:00:17;;;;;;;10.50;5.57;;;35.00;96.70;;;;;;4895247;29;21341;-78
2023/07/18 12:02:46;;;;;;;11.88;5.80;;;35.00;96.70;;;;;;4911590;29;20131;-78
2023/07/18 12:05:15;;;;;;;13.00;5.35;;;35.00;96.70;;;;;;4912471;29;20043;-78
2023/07/18 12:07:47;;;;;;;11.73;5.95;;;35.10;96.70;;;;;;4911890;29;20075;-78
2023/07/18 12:10:15;;;;;;;8.77;5.82;;;35.20;96.70;;;;;;4901322;29;20052;-78
2023/07/18 12:12:44;;;;;;;12.60;5.47;;;35.20;96.70;;;;;;4910802;29;20043;-79
2023/07/18 12:15:14;;;;;;;9.98;5.50;;;35.30;96.70;;;;;;4910981;29;20150;-78
2023/07/18 12:17:42;;;;;;;11.95;5.10;;;35.20;96.70;;;;;;4913505;29;20118;-78
2023/07/18 12:20:11;;;;;;;10.68;4.88;;;35.40;96.70;;;;;;4926344;29;20055;-78
2023/07/18 12:22:39;;;;;;;10.00;5.38;;;35.50;96.70;;;;;;4927871;29;20039;-78
2023/07/18 12:25:08;;;;;;;7.97;5.32;;;35.50;96.70;;;;;;4901465;29;20059;-78
2023/07/18 12:27:36;;;;;;;8.77;5.70;;;35.60;96.70;;;;;;4926731;29;20135;-78
2023/07/18 12:30:06;;;;;;;10.88;5.45;;;35.80;96.70;;;;;;4910471;29;20048;-78
2023/07/18 12:32:36;;;;;;;10.27;5.15;;;36.00;96.70;;;;;;4927488;29;20050;-78
2023/07/18 12:35:05;;;;;;;10.27;5.68;;;35.90;96.70;;;;;;4927289;29;20134;-79
2023/07/18 12:37:33;;;;;;;10.70;5.55;;;36.00;96.70;;;;;;4907946;29;20528;-79
2023/07/18 12:40:01;;;;;;;10.98;4.90;;;36.10;96.70;;;;;;4926870;29;20075;-79
2023/07/18 12:42:29;;;;;;;7.93;3.83;;;36.30;96.70;;;;;;4931236;28;20490;-80
2023/07/18 12:44:58;;;;;;;7.65;4.10;;;36.40;96.70;;;;;;4927136;29;20111;-79
2023/07/18 12:47:27;;;;;;;9.30;4.28;;;36.20;96.70;;;;;;4909779;29;20075;-79
2023/07/18 12:49:57;;;;;;;7.72;4.07;;;36.30;96.70;;;;;;4924059;29;20446;-79
2023/07/18 12:52:25;;;;;;;9.18;3.70;;;36.40;96.70;;;;;;4909979;29;20067;-78